Time;durP1;ratioP1;P1;durP2;ratioP2;P2;SDS_P1;SDS_P2;PMS_P1;PMS_P2;Temp;Humidity;BMP_temperature;BMP_pressure;BME280_temperature;BME280_humidity;BME280_pressure;Samples;Min_cycle;Max_cycle;Signal;HPM_P1;HPM_P2
2023/09/29 04:00:13;;;;;;;;;;;18.10;99.90;;;;;;5973117;23;19945;31
2023/09/29 04:02:42;;;;;;;;;;;18.00;99.90;;;;;;4933981;29;19926;-68
2023/09/29 04:05:09;;;;;;;;;;;17.90;99.90;;;;;;4937281;29;19907;-68
2023/09/29 04:07:36;;;;;;;;;;;17.90;99.90;;;;;;4937195;29;19913;-68
2023/09/29 04:10:02;;;;;;;;;;;17.80;99.90;;;;;;4951626;29;19913;-68
2023/09/29 04:12:27;;;;;;;;;;;17.80;99.90;;;;;;4937397;29;19907;-66
2023/09/29 04:14:53;;;;;;;;;;;17.80;99.90;;;;;;4936386;29;20266;-66
2023/09/29 04:17:18;;;;;;;;;;;17.80;99.90;;;;;;4936430;29;19911;-66
2023/09/29 04:19:44;;;;;;;;;;;17.90;99.90;;;;;;4937412;29;20280;-67
2023/09/29 04:22:09;;;;;;;;;;;18.00;99.90;;;;;;4936141;29;19919;-66
2023/09/29 04:24:36;;;;;;;;;;;18.20;99.90;;;;;;4936430;29;19907;-66
2023/09/29 04:27:01;;;;;;;;;;;18.10;99.90;;;;;;4936929;29;19907;-66
2023/09/29 04:29:26;;;;;;;;;;;18.20;99.90;;;;;;4936967;29;19907;-66
2023/09/29 04:31:52;;;;;;;;;;;18.30;99.90;;;;;;4936687;29;19998;-66
2023/09/29 04:34:17;;;;;;;;;;;18.20;99.90;;;;;;4935378;29;19914;-65
2023/09/29 04:36:43;;;;;;;;;;;18.20;99.90;;;;;;4935505;29;19962;-67
2023/09/29 04:39:09;;;;;;;;;;;18.20;99.90;;;;;;4936956;29;19911;-65
2023/09/29 04:41:34;;;;;;;;;;;18.00;99.90;;;;;;4934840;29;19953;-66
2023/09/29 04:44:00;;;;;;;;;;;17.90;99.90;;;;;;4936376;29;19907;-66
2023/09/29 04:46:26;;;;;;;;;;;17.80;99.90;;;;;;4936275;29;20330;-66
2023/09/29 04:48:53;;;;;;;;;;;17.80;99.90;;;;;;4936231;29;19906;-66
2023/09/29 04:51:18;;;;;;;;;;;17.80;99.90;;;;;;4936620;29;19906;-66
2023/09/29 04:53:44;;;;;;;;;;;17.80;99.90;;;;;;4936550;29;19914;-66
2023/09/29 04:56:10;;;;;;;;;;;17.80;99.90;;;;;;4937067;29;19906;-65
2023/09/29 04:58:35;;;;;;;;;;;18.00;99.90;;;;;;4936239;29;19918;-67
2023/09/29 05:01:01;;;;;;;;;;;18.10;99.90;;;;;;4935906;29;20373;-65
2023/09/29 05:03:27;;;;;;;;;;;18.20;99.90;;;;;;4936152;29;19907;-65
2023/09/29 05:05:52;;;;;;;;;;;18.00;99.90;;;;;;4936199;29;19984;-64
2023/09/29 05:08:18;;;;;;;;;;;18.10;99.90;;;;;;4936049;29;19907;-63
2023/09/29 05:10:44;;;;;;;;;;;18.00;99.90;;;;;;4936703;29;19942;-65
2023/09/29 05:13:09;;;;;;;;;;;18.10;99.90;;;;;;4937263;29;19911;-67
2023/09/29 05:15:36;;;;;;;;;;;18.00;99.90;;;;;;4937887;29;19911;-66
2023/09/29 05:18:05;;;;;;;;;;;17.90;99.90;;;;;;4937288;29;19966;-66
2023/09/29 05:20:30;;;;;;;;;;;17.80;99.90;;;;;;4937763;29;19911;-66
2023/09/29 05:22:56;;;;;;;;;;;17.80;99.90;;;;;;4938926;29;19906;-66
2023/09/29 05:25:21;;;;;;;;;;;17.80;99.90;;;;;;4942678;29;19913;-65
2023/09/29 05:27:47;;;;;;;;;;;17.70;99.90;;;;;;4943718;29;19913;-66
2023/09/29 05:30:12;;;;;;;;;;;17.70;99.90;;;;;;4944283;29;19913;-66
2023/09/29 05:32:38;;;;;;;;;;;17.70;99.90;;;;;;4944983;29;19907;-66
2023/09/29 05:35:04;;;;;;;;;;;17.70;99.90;;;;;;4945871;29;19907;-66
2023/09/29 05:37:30;;;;;;;;;;;17.70;99.90;;;;;;4939115;29;19954;-66
2023/09/29 05:39:56;;;;;;;;;;;17.70;99.90;;;;;;4925324;29;19907;-66
2023/09/29 05:42:21;;;;;;;;;;;17.70;99.90;;;;;;4940087;29;19930;-67
2023/09/29 05:44:47;;;;;;;;;;;17.70;99.90;;;;;;4921336;29;19911;-66
2023/09/29 05:47:12;;;;;;;;;;;17.70;99.90;;;;;;4922109;29;19911;-66
2023/09/29 05:49:38;;;;;;;;;;;17.70;99.90;;;;;;4929164;29;19997;-66
2023/09/29 05:52:03;;;;;;;;;;;17.70;99.90;;;;;;4930073;29;19906;-66
2023/09/29 05:54:29;;;;;;;;;;;17.70;99.90;;;;;;4930008;29;19910;-66
2023/09/29 05:56:54;;;;;;;;;;;17.60;99.90;;;;;;4926893;29;19907;-66
2023/09/29 05:59:20;;;;;;;;;;;17.60;99.90;;;;;;4924471;29;19907;-66
2023/09/29 06:01:46;;;;;;;;;;;17.70;99.90;;;;;;4925412;29;19954;-66
2023/09/29 06:04:11;;;;;;;;;;;17.70;99.90;;;;;;4920366;29;20274;-66
2023/09/29 06:06:37;;;;;;;;;;;17.70;99.90;;;;;;4918579;29;19914;-66
2023/09/29 06:09:04;;;;;;;;;;;17.80;99.90;;;;;;4919689;29;20002;-65
2023/09/29 06:11:30;;;;;;;;;;;17.90;99.90;;;;;;4920150;29;20301;-66
2023/09/29 06:13:56;;;;;;;;;;;18.00;99.90;;;;;;4919594;29;19926;-65
2023/09/29 06:16:22;;;;;;;;;;;18.00;99.90;;;;;;4919604;29;20357;-66
2023/09/29 06:18:48;;;;;;;;;;;18.10;99.90;;;;;;4919512;29;19914;-67
2023/09/29 06:21:13;;;;;;;;;;;18.10;99.90;;;;;;4920195;29;20297;-66
2023/09/29 06:23:39;;;;;;;;;;;18.20;99.90;;;;;;4938432;29;20001;-66
2023/09/29 06:26:04;;;;;;;;;;;18.30;99.90;;;;;;4938310;29;20361;-66
2023/09/29 06:28:30;;;;;;;;;;;18.40;99.90;;;;;;4938440;29;19906;-66
2023/09/29 06:30:55;;;;;;;;;;;18.40;99.90;;;;;;4938534;29;19989;-66
2023/09/29 06:33:21;;;;;;;;;;;18.40;99.90;;;;;;4938146;29;19910;-66
2023/09/29 06:35:47;;;;;;;;;;;18.40;99.90;;;;;;4927976;29;19911;-66
2023/09/29 06:38:13;;;;;;;;;;;18.40;99.90;;;;;;4918537;29;19918;-65
2023/09/29 06:40:38;;;;;;;;;;;18.30;99.90;;;;;;4918444;29;19911;-66
2023/09/29 06:43:03;;;;;;;;;;;18.30;99.90;;;;;;4918908;29;19907;-66
2023/09/29 06:45:31;;;;;;;;;;;18.30;99.90;;;;;;4921831;29;19965;-66
2023/09/29 06:47:57;;;;;;;;;;;18.40;99.90;;;;;;4934478;29;19911;-66
2023/09/29 06:50:22;;;;;;;;;;;18.40;99.90;;;;;;4937664;29;20309;-66
2023/09/29 06:52:48;;;;;;;;;;;18.40;99.90;;;;;;4937124;29;19914;-66
2023/09/29 06:55:13;;;;;;;;;;;18.50;99.90;;;;;;4935245;29;19910;-66
2023/09/29 06:57:39;;;;;;;;;;;18.60;99.90;;;;;;4938110;29;20342;-66
2023/09/29 07:00:06;;;;;;;;;;;18.80;99.90;;;;;;4937976;29;19915;-66
2023/09/29 07:02:31;;;;;;;;;;;18.90;99.90;;;;;;4937579;29;19954;-66
2023/09/29 07:04:57;;;;;;;;;;;19.00;99.90;;;;;;4937906;29;19914;-66
2023/09/29 07:07:22;;;;;;;;;;;19.10;99.90;;;;;;4939408;29;19907;-66
2023/09/29 07:09:48;;;;;;;;;;;19.10;99.90;;;;;;4938002;29;19958;-66
2023/09/29 07:12:13;;;;;;;;;;;19.20;99.90;;;;;;4937311;29;19907;-65
2023/09/29 07:14:39;;;;;;;;;;;19.30;99.90;;;;;;4938006;29;19910;-66
2023/09/29 07:17:04;;;;;;;;;;;19.50;99.90;;;;;;4938514;29;19907;-66
2023/09/29 07:19:31;;;;;;;;;;;19.50;99.90;;;;;;4938797;29;19914;-66
2023/09/29 07:21:57;;;;;;;;;;;19.50;99.90;;;;;;4938147;29;19917;-66
2023/09/29 07:24:22;;;;;;;;;;;19.30;99.90;;;;;;4938452;29;19974;-66
2023/09/29 07:26:48;;;;;;;;;;;19.30;99.90;;;;;;4937828;29;19907;-68
2023/09/29 07:29:13;;;;;;;;;;;19.30;99.90;;;;;;4937590;29;19907;-67
2023/09/29 07:31:46;;;;;;;;;;;19.50;99.90;;;;;;4937171;29;20458;-65
2023/09/29 07:34:11;;;;;;;;;;;19.70;99.90;;;;;;4936995;29;19954;-64
2023/09/29 07:36:39;;;;;;;;;;;19.70;99.90;;;;;;4937417;29;19907;-68
2023/09/29 07:39:04;;;;;;;;;;;19.70;99.90;;;;;;4936339;29;19965;-68
2023/09/29 07:41:30;;;;;;;;;;;19.60;99.90;;;;;;4936912;29;19910;-68
2023/09/29 07:43:56;;;;;;;;;;;19.50;99.90;;;;;;4936951;29;19916;-67
2023/09/29 07:46:22;;;;;;;;;;;19.60;99.90;;;;;;4936729;29;20388;-68
2023/09/29 07:48:47;;;;;;;;;;;19.60;99.90;;;;;;4937329;29;19922;-68
2023/09/29 07:51:13;;;;;;;;;;;19.40;99.90;;;;;;4935364;29;20398;-69
2023/09/29 07:53:38;;;;;;;;;;;19.30;99.90;;;;;;4937052;29;20061;-69
2023/09/29 07:56:04;;;;;;;;;;;19.20;99.90;;;;;;4935905;29;20301;-69
2023/09/29 07:58:29;;;;;;;;;;;19.20;99.90;;;;;;4936075;29;19986;-69
2023/09/29 08:00:55;;;;;;;;;;;19.20;99.90;;;;;;4935281;29;19962;-69
2023/09/29 08:03:20;;;;;;;;;;;19.20;99.90;;;;;;4936064;29;19907;-68
2023/09/29 08:05:46;;;;;;;;;;;19.40;99.90;;;;;;4936749;29;20013;-68
2023/09/29 08:08:11;;;;;;;;;;;19.50;99.90;;;;;;4936677;29;19954;-68
2023/09/29 08:10:37;;;;;;;;;;;19.70;99.90;;;;;;4951110;28;20370;-68
2023/09/29 08:13:02;;;;;;;;;;;19.70;99.90;;;;;;4936416;29;19906;-69
2023/09/29 08:15:27;;;;;;;;;;;19.80;99.90;;;;;;4934515;29;20001;-69
2023/09/29 08:17:53;;;;;;;;;;;19.90;99.90;;;;;;4935715;29;19906;-67
2023/09/29 08:20:20;;;;;;;;;;;20.10;99.90;;;;;;4935753;29;19973;-64
2023/09/29 08:22:45;;;;;;;;;;;20.30;99.90;;;;;;4936311;29;20092;-63
2023/09/29 08:25:11;;;;;;;;;;;20.50;99.90;;;;;;4931051;28;20002;-63
2023/09/29 08:27:37;;;;;;;;;;;20.60;99.90;;;;;;4934439;29;20318;-64
2023/09/29 08:30:03;;;;;;;;;;;20.80;99.90;;;;;;4930310;29;19938;-65
2023/09/29 08:32:29;;;;;;;;;;;20.70;99.90;;;;;;4931580;28;19907;-65
2023/09/29 08:34:55;;;;;;;;;;;20.80;99.90;;;;;;4933185;29;19907;-65
2023/09/29 08:37:20;;;;;;;;;;;20.60;99.90;;;;;;4929910;29;19914;-65
2023/09/29 08:39:46;;;;;;;;;;;20.50;99.90;;;;;;4927559;29;19914;-65
2023/09/29 08:42:30;;;;;;;;;;;20.60;99.90;;;;;;4935837;29;19918;-65
2023/09/29 08:44:59;;;;;;;;;;;20.80;99.90;;;;;;4935999;29;20404;-66
2023/09/29 08:47:28;;;;;;;;;;;20.80;99.90;;;;;;4936030;29;19973;-65
2023/09/29 08:49:54;;;;;;;;;;;20.70;99.90;;;;;;4936167;29;19907;-66
2023/09/29 08:52:20;;;;;;;;;;;21.00;99.90;;;;;;4933194;29;20263;-65
2023/09/29 08:54:46;;;;;;;;;;;22.40;99.90;;;;;;4933295;29;19914;-65
2023/09/29 08:57:12;;;;;;;;;;;25.00;99.90;;;;;;4932169;29;19917;-67
2023/09/29 08:59:38;;;;;;;;;;;27.00;99.40;;;;;;4937072;29;19907;-66
2023/09/29 09:02:04;;;;;;;;;;;28.10;96.60;;;;;;4940541;29;19914;-64
2023/09/29 09:04:30;;;;;;;;;;;29.10;95.00;;;;;;4941979;29;19911;-64
2023/09/29 09:06:56;;;;;;;;;;;29.20;94.20;;;;;;4939876;29;19958;-64
2023/09/29 09:09:24;;;;;;;;;;;28.70;94.00;;;;;;4929494;29;19913;-65
2023/09/29 09:11:50;;;;;;;;;;;28.50;94.40;;;;;;4942601;29;19914;-64
2023/09/29 09:14:16;;;;;;;;;;;28.10;94.40;;;;;;4933278;29;19907;-65
2023/09/29 09:16:41;;;;;;;;;;;27.40;95.10;;;;;;4930233;29;19911;-65
2023/09/29 09:19:14;;;;;;;;;;;26.90;95.10;;;;;;4943528;29;19907;-67
2023/09/29 09:21:40;;;;;;;;;;;27.00;95.40;;;;;;4938990;29;19922;-66
2023/09/29 09:24:22;;;;;;;;;;;27.60;94.60;;;;;;4938784;29;20428;-67
2023/09/29 09:26:48;;;;;;;;;;;27.30;94.50;;;;;;4937740;29;19914;-66
2023/09/29 09:29:16;;;;;;;;;;;26.60;95.00;;;;;;4938059;29;19907;-67
2023/09/29 09:31:45;;;;;;;;;;;26.10;96.30;;;;;;4938495;29;19969;-65
2023/09/29 09:34:12;;;;;;;;;;;25.80;96.20;;;;;;4938312;29;19907;-65
2023/09/29 09:36:53;;;;;;;;;;;25.60;96.50;;;;;;4938603;29;19914;-66
2023/09/29 09:39:22;;;;;;;;;;;25.60;96.50;;;;;;4939081;29;19950;-66
2023/09/29 09:41:52;;;;;;;;;;;25.60;96.80;;;;;;4939000;29;19911;-66
2023/09/29 09:44:19;;;;;;;;;;;26.20;96.60;;;;;;4939280;29;19997;-65
2023/09/29 09:46:49;;;;;;;;;;;26.80;96.00;;;;;;4938836;29;20326;-65
2023/09/29 09:49:16;;;;;;;;;;;28.10;95.60;;;;;;4936607;29;20041;-66
2023/09/29 09:51:44;;;;;;;;;;;29.20;94.00;;;;;;4939005;29;19907;-65
2023/09/29 09:54:10;;;;;;;;;;;30.20;92.80;;;;;;4939111;29;19933;-65
2023/09/29 09:56:45;;;;;;;;;;;30.80;92.30;;;;;;4939060;29;19938;-66
2023/09/29 09:59:12;;;;;;;;;;;31.60;91.20;;;;;;4938858;29;20421;-66
2023/09/29 10:01:38;;;;;;;;;;;31.70;90.80;;;;;;4938314;29;19919;-66
2023/09/29 10:04:05;;;;;;;;;;;32.10;90.90;;;;;;4938301;29;19910;-66
2023/09/29 10:06:33;;;;;;;;;;;33.00;88.60;;;;;;4936140;29;20005;-67
2023/09/29 10:09:11;;;;;;;;;;;34.40;85.70;;;;;;4928753;29;19911;-66
2023/09/29 10:11:37;;;;;;;;;;;35.10;83.80;;;;;;4926623;29;19926;-66
2023/09/29 10:14:03;;;;;;;;;;;36.50;80.90;;;;;;4927738;29;21212;-69
2023/09/29 10:16:28;;;;;;;;;;;36.90;77.70;;;;;;4938784;29;20006;-68
2023/09/29 10:19:05;;;;;;;;;;;37.10;76.80;;;;;;4938291;29;19969;-68
2023/09/29 10:21:39;;;;;;;;;;;37.50;75.00;;;;;;4938213;29;20385;-68
2023/09/29 10:24:05;;;;;;;;;;;37.90;73.50;;;;;;4938372;29;20328;-69
2023/09/29 10:26:47;;;;;;;;;;;37.90;72.80;;;;;;4938421;29;19907;-68
2023/09/29 10:29:19;;;;;;;;;;;37.90;72.60;;;;;;4939330;29;19993;-68
2023/09/29 10:31:45;;;;;;;;;;;38.10;71.80;;;;;;4937310;29;19913;-69
2023/09/29 10:34:17;;;;;;;;;;;38.30;71.50;;;;;;4938130;29;19994;-67
2023/09/29 10:36:42;;;;;;;;;;;38.50;70.80;;;;;;4938353;29;20277;-70
2023/09/29 10:39:08;;;;;;;;;;;38.40;70.20;;;;;;4938359;29;19907;-71
2023/09/29 10:41:34;;;;;;;;;;;38.50;69.90;;;;;;4937968;29;20318;-69
2023/09/29 10:44:00;;;;;;;;;;;38.30;70.30;;;;;;5280853;23;21347;-65
2023/09/29 10:46:26;;;;;;;;;;;38.40;69.40;;;;;;4975301;28;20114;-69
2023/09/29 10:48:55;;;;;;;;;;;38.40;69.20;;;;;;4974721;28;20363;-65
2023/09/29 10:51:27;;;;;;;;;;;38.30;69.40;;;;;;4976672;28;19910;-68
2023/09/29 10:53:54;;;;;;;;;;;38.10;69.20;;;;;;4976191;28;20261;-67
2023/09/29 10:56:20;;;;;;;;;;;38.10;69.10;;;;;;4976129;28;19913;-64
2023/09/29 10:58:45;;;;;;;;;;;36.30;70.30;;;;;;4976736;28;20349;-67
2023/09/29 11:01:11;;;;;;;;;;;34.00;73.30;;;;;;4975881;28;19914;-67
2023/09/29 11:03:37;;;;;;;;;;;32.10;76.40;;;;;;4975967;28;20023;-67
2023/09/29 11:06:08;;;;;;;;;;;30.80;79.10;;;;;;4976173;28;20408;-70
2023/09/29 11:08:35;;;;;;;;;;;29.80;81.50;;;;;;4975094;28;19906;-67
2023/09/29 11:11:04;;;;;;;;;;;28.90;84.40;;;;;;4975890;28;19910;-67
2023/09/29 11:13:31;;;;;;;;;;;28.50;85.80;;;;;;4976276;28;19910;-68
2023/09/29 11:15:58;;;;;;;;;;;28.00;87.20;;;;;;4976022;28;19913;-69
2023/09/29 11:18:27;;;;;;;;;;;27.80;88.00;;;;;;4976198;28;19906;-67
2023/09/29 11:20:53;;;;;;;;;;;27.60;88.70;;;;;;4975837;28;19910;-67
2023/09/29 11:23:18;;;;;;;;;;;27.40;89.70;;;;;;4975728;28;19913;-67
2023/09/29 11:25:46;;;;;;;;;;;27.20;90.30;;;;;;4974788;28;19913;-67
2023/09/29 11:28:12;;;;;;;;;;;27.10;90.50;;;;;;4975566;28;19973;-66
2023/09/29 11:30:39;;;;;;;;;;;27.20;90.50;;;;;;4975619;28;19906;-66
2023/09/29 11:33:06;;;;;;;;;;;27.00;90.80;;;;;;4976759;28;19956;-67
2023/09/29 11:35:32;;;;;;;;;;;27.00;90.90;;;;;;4978439;28;19934;-66
2023/09/29 11:37:58;;;;;;;;;;;26.90;91.10;;;;;;4977058;28;19906;-67
2023/09/29 11:40:23;;;;;;;;;;;26.90;91.00;;;;;;4975787;28;19914;-66
2023/09/29 11:42:49;;;;;;;;;;;26.90;91.20;;;;;;4975876;28;20246;-67
2023/09/29 11:45:15;;;;;;;;;;;26.90;91.20;;;;;;4975432;28;20016;-67
2023/09/29 11:47:41;;;;;;;;;;;26.80;91.20;;;;;;4975936;28;20324;-65
2023/09/29 11:50:10;;;;;;;;;;;26.80;91.00;;;;;;4975521;28;20373;-72
2023/09/29 11:52:39;;;;;;;;;;;26.70;91.10;;;;;;4974221;28;19906;-67
2023/09/29 11:55:08;;;;;;;;;;;26.70;91.30;;;;;;4975404;28;20435;-66
2023/09/29 11:57:34;;;;;;;;;;;26.70;91.40;;;;;;4975774;28;19906;-67
2023/09/29 12:00:00;;;;;;;;;;;26.80;91.40;;;;;;4975013;28;19906;-67
2023/09/29 12:02:26;;;;;;;;;;;26.90;91.50;;;;;;4973890;28;20312;-67
2023/09/29 12:04:52;;;;;;;;;;;26.90;91.40;;;;;;4975273;28;19906;-68
2023/09/29 12:07:17;;;;;;;;;;;27.00;91.20;;;;;;4975415;28;19921;-69
2023/09/29 12:09:43;;;;;;;;;;;27.10;91.40;;;;;;4975139;28;19914;-68
2023/09/29 12:12:08;;;;;;;;;;;27.20;91.30;;;;;;4975328;28;20326;-69
2023/09/29 12:14:34;;;;;;;;;;;27.30;91.40;;;;;;4975016;28;19906;-69
2023/09/29 12:17:00;;;;;;;;;;;27.40;91.30;;;;;;4974142;28;19968;-70
2023/09/29 12:19:26;;;;;;;;;;;27.50;91.30;;;;;;4975859;28;19944;-69
2023/09/29 12:21:51;;;;;;;;;;;27.50;91.30;;;;;;4975529;28;20016;-69
2023/09/29 12:24:18;;;;;;;;;;;27.20;91.50;;;;;;4978526;28;19906;-68
2023/09/29 12:26:46;;;;;;;;;;;27.10;91.90;;;;;;4979344;28;19906;-68
2023/09/29 12:29:12;;;;;;;;;;;27.10;92.10;;;;;;4979971;28;19906;-67
2023/09/29 12:31:37;;;;;;;;;;;26.90;92.30;;;;;;4978515;28;19906;-67
2023/09/29 12:34:04;;;;;;;;;;;27.00;92.50;;;;;;4980564;28;19906;-67
2023/09/29 12:36:30;;;;;;;;;;;26.80;92.60;;;;;;4982230;28;19906;-68
2023/09/29 12:38:55;;;;;;;;;;;26.50;92.70;;;;;;4981409;28;19906;-66
2023/09/29 12:41:21;;;;;;;;;;;26.50;93.30;;;;;;4981396;28;19961;-67
2023/09/29 12:43:47;;;;;;;;;;;26.40;93.20;;;;;;4979751;28;20365;-66
2023/09/29 12:46:13;;;;;;;;;;;26.60;93.40;;;;;;4977706;28;19968;-66
2023/09/29 12:48:38;;;;;;;;;;;26.70;93.60;;;;;;4976676;28;20280;-68
2023/09/29 12:51:04;;;;;;;;;;;26.90;93.40;;;;;;4979348;28;20272;-67
2023/09/29 12:53:29;;;;;;;;;;;27.00;93.40;;;;;;4978926;28;20048;-67
2023/09/29 12:55:55;;;;;;;;;;;27.00;93.50;;;;;;4978866;28;19906;-66
2023/09/29 12:58:21;;;;;;;;;;;27.00;93.60;;;;;;4978473;28;20340;-67
2023/09/29 13:00:46;;;;;;;;;;;27.10;93.70;;;;;;4978322;28;20048;-67
2023/09/29 13:03:12;;;;;;;;;;;27.10;93.50;;;;;;4978052;28;19933;-68
2023/09/29 13:05:37;;;;;;;;;;;27.10;93.50;;;;;;4978839;28;19906;-67
2023/09/29 13:08:06;;;;;;;;;;;27.10;93.30;;;;;;4978382;28;19946;-68
2023/09/29 13:10:35;;;;;;;;;;;27.00;93.30;;;;;;4978223;28;19906;-68
2023/09/29 13:13:03;;;;;;;;;;;27.00;93.50;;;;;;4978888;28;19910;-68
2023/09/29 13:15:28;;;;;;;;;;;27.00;93.40;;;;;;4977879;28;19960;-68
2023/09/29 13:17:55;;;;;;;;;;;27.10;93.40;;;;;;4977747;28;19906;-68
2023/09/29 13:20:20;;;;;;;;;;;27.00;93.40;;;;;;4978139;28;19932;-67
2023/09/29 13:22:46;;;;;;;;;;;27.00;93.60;;;;;;4978082;28;20408;-68
2023/09/29 13:25:11;;;;;;;;;;;27.10;93.70;;;;;;4977889;28;19929;-67
2023/09/29 13:27:37;;;;;;;;;;;27.10;93.60;;;;;;4977767;28;19906;-67
2023/09/29 13:30:04;;;;;;;;;;;27.40;93.40;;;;;;4978096;28;19906;-67
2023/09/29 13:32:30;;;;;;;;;;;27.30;93.20;;;;;;4977411;28;19921;-68
2023/09/29 13:34:55;;;;;;;;;;;27.20;93.40;;;;;;4978356;28;19906;-68
2023/09/29 13:37:21;;;;;;;;;;;27.20;93.70;;;;;;4976447;28;19992;-67
2023/09/29 13:39:48;;;;;;;;;;;27.20;93.70;;;;;;4978745;28;19906;-67
2023/09/29 13:42:13;;;;;;;;;;;27.30;93.30;;;;;;4978890;28;20288;-69
2023/09/29 13:44:39;;;;;;;;;;;27.30;93.00;;;;;;4977989;28;19914;-67
2023/09/29 13:47:05;;;;;;;;;;;27.20;93.10;;;;;;4977860;28;19953;-67
2023/09/29 13:49:31;;;;;;;;;;;27.20;92.80;;;;;;4977261;28;19910;-67
2023/09/29 13:51:57;;;;;;;;;;;27.10;92.80;;;;;;4976818;28;20001;-69
2023/09/29 13:54:22;;;;;;;;;;;26.90;92.90;;;;;;4976959;28;19938;-68
2023/09/29 13:56:48;;;;;;;;;;;26.50;93.10;;;;;;4978892;28;19913;-67
2023/09/29 13:59:13;;;;;;;;;;;26.30;93.50;;;;;;4978135;28;19906;-68
2023/09/29 14:01:39;;;;;;;;;;;26.20;93.50;;;;;;4977612;28;19933;-68
2023/09/29 14:04:06;;;;;;;;;;;26.10;93.70;;;;;;4977774;28;19991;-67
2023/09/29 14:06:31;;;;;;;;;;;26.10;93.80;;;;;;4977953;28;19992;-68
2023/09/29 14:08:57;;;;;;;;;;;26.10;93.90;;;;;;4978655;28;20391;-67
2023/09/29 14:11:23;;;;;;;;;;;25.90;93.90;;;;;;4977605;28;19913;-67
2023/09/29 14:13:49;;;;;;;;;;;25.80;93.70;;;;;;4977565;28;19928;-67
2023/09/29 14:16:15;;;;;;;;;;;25.70;93.90;;;;;;4976725;28;19912;-67
2023/09/29 14:18:41;;;;;;;;;;;25.70;93.90;;;;;;4976709;28;19910;-67
2023/09/29 14:21:07;;;;;;;;;;;25.70;93.90;;;;;;4977135;28;19953;-66
2023/09/29 14:23:33;;;;;;;;;;;25.60;93.90;;;;;;4977256;28;19906;-67
2023/09/29 14:25:58;;;;;;;;;;;25.60;94.00;;;;;;4976738;28;19906;-67
2023/09/29 14:28:24;;;;;;;;;;;25.50;93.60;;;;;;4975834;28;19913;-67
2023/09/29 14:30:49;;;;;;;;;;;25.30;93.60;;;;;;4976239;28;19913;-66
2023/09/29 14:33:15;;;;;;;;;;;25.30;93.50;;;;;;4976284;28;19910;-66
2023/09/29 14:35:40;;;;;;;;;;;25.20;93.40;;;;;;4976867;28;19906;-66
2023/09/29 14:38:06;;;;;;;;;;;25.10;93.70;;;;;;4977287;28;19985;-67
2023/09/29 14:40:31;;;;;;;;;;;25.00;93.90;;;;;;4976823;28;19933;-66
2023/09/29 14:42:57;;;;;;;;;;;25.00;93.90;;;;;;4976616;28;19965;-68
2023/09/29 14:45:23;;;;;;;;;;;25.00;94.10;;;;;;4977244;28;19913;-68
2023/09/29 14:47:49;;;;;;;;;;;25.00;94.00;;;;;;4976073;28;20363;-66
2023/09/29 14:50:14;;;;;;;;;;;24.90;94.20;;;;;;4976336;28;20022;-67
2023/09/29 14:52:40;;;;;;;;;;;24.80;94.40;;;;;;4976256;28;19914;-70
2023/09/29 14:55:05;;;;;;;;;;;24.80;94.60;;;;;;4976499;28;19953;-68
2023/09/29 14:57:37;;;;;;;;;;;24.70;94.70;;;;;;4976528;28;19949;-70
2023/09/29 15:00:04;;;;;;;;;;;24.60;94.80;;;;;;4975227;28;19906;-71
2023/09/29 15:02:33;;;;;;;;;;;24.70;94.80;;;;;;4976398;28;19961;-69
2023/09/29 15:04:58;;;;;;;;;;;24.80;94.40;;;;;;4975968;28;20008;-68
2023/09/29 15:07:25;;;;;;;;;;;24.60;94.40;;;;;;4976387;28;19937;-68
2023/09/29 15:09:50;;;;;;;;;;;24.60;94.50;;;;;;4974983;28;19910;-66
2023/09/29 15:12:16;;;;;;;;;;;24.50;94.70;;;;;;4974674;28;19961;-66
2023/09/29 15:14:41;;;;;;;;;;;24.50;94.60;;;;;;4977176;28;19906;-66
2023/09/29 15:17:07;;;;;;;;;;;24.50;94.40;;;;;;4976098;28;19929;-66
2023/09/29 15:19:41;;;;;;;;;;;24.40;94.40;;;;;;4975148;28;19917;-66
2023/09/29 15:22:06;;;;;;;;;;;24.40;94.10;;;;;;4973024;28;19925;-67
2023/09/29 15:24:32;;;;;;;;;;;24.30;94.10;;;;;;4975352;28;20380;-68
2023/09/29 15:26:57;;;;;;;;;;;24.20;94.10;;;;;;4973070;28;19906;-67
2023/09/29 15:29:23;;;;;;;;;;;24.00;94.30;;;;;;4969886;28;19911;-66
2023/09/29 15:31:49;;;;;;;;;;;23.90;94.60;;;;;;4964928;28;19906;-67
2023/09/29 15:34:14;;;;;;;;;;;23.90;94.40;;;;;;4972643;28;19914;-67
2023/09/29 15:36:40;;;;;;;;;;;23.90;94.40;;;;;;4967807;28;20338;-67
2023/09/29 15:39:09;;;;;;;;;;;23.90;94.00;;;;;;4973813;28;19997;-67
2023/09/29 15:41:35;;;;;;;;;;;23.80;94.40;;;;;;4972166;28;19914;-67
2023/09/29 15:44:01;;;;;;;;;;;23.80;93.90;;;;;;4976623;28;19918;-66
2023/09/29 15:46:26;;;;;;;;;;;23.80;94.00;;;;;;4977885;28;19910;-67
2023/09/29 15:48:52;;;;;;;;;;;23.80;94.00;;;;;;4977816;28;20288;-67
2023/09/29 15:51:17;;;;;;;;;;;23.80;93.80;;;;;;4981528;28;20357;-67
2023/09/29 15:53:44;;;;;;;;;;;23.60;94.10;;;;;;4980821;28;20342;-66
2023/09/29 15:56:09;;;;;;;;;;;23.70;94.00;;;;;;4981578;28;19906;-67
2023/09/29 15:58:35;;;;;;;;;;;23.70;93.70;;;;;;4980875;28;19910;-67
2023/09/29 16:01:01;;;;;;;;;;;23.60;93.90;;;;;;4978365;28;19918;-67
2023/09/29 16:03:27;;;;;;;;;;;23.50;94.00;;;;;;4978912;28;20005;-66
2023/09/29 16:05:53;;;;;;;;;;;23.50;94.10;;;;;;4978459;28;19941;-67
2023/09/29 16:08:18;;;;;;;;;;;23.40;94.10;;;;;;4978637;28;19996;-67
2023/09/29 16:10:44;;;;;;;;;;;23.30;94.20;;;;;;4976863;28;19906;-67
2023/09/29 16:13:12;;;;;;;;;;;23.30;94.40;;;;;;4977827;28;19906;-68
2023/09/29 16:15:39;;;;;;;;;;;23.30;94.40;;;;;;4977552;28;19910;-68
2023/09/29 16:18:04;;;;;;;;;;;23.30;94.40;;;;;;4977938;28;19917;-68
2023/09/29 16:20:30;;;;;;;;;;;23.20;94.50;;;;;;4976676;28;20288;-71
2023/09/29 16:22:56;;;;;;;;;;;23.10;94.70;;;;;;4976944;28;19929;-71
2023/09/29 16:25:22;;;;;;;;;;;23.10;94.70;;;;;;4976142;28;19914;-73
2023/09/29 16:27:47;;;;;;;;;;;23.00;94.80;;;;;;4974996;28;20332;-71
2023/09/29 16:30:13;;;;;;;;;;;23.10;94.60;;;;;;4975048;28;19906;-71
2023/09/29 16:32:38;;;;;;;;;;;23.10;94.50;;;;;;4974932;28;19910;-67
2023/09/29 16:35:04;;;;;;;;;;;23.10;94.70;;;;;;4973982;28;19910;-72
2023/09/29 16:37:31;;;;;;;;;;;23.00;95.00;;;;;;4975104;28;19917;-72
2023/09/29 16:39:56;;;;;;;;;;;22.90;95.00;;;;;;4975671;28;19913;-69
2023/09/29 16:42:22;;;;;;;;;;;22.80;95.10;;;;;;4975397;28;20014;-69
2023/09/29 16:44:47;;;;;;;;;;;22.80;95.20;;;;;;4978196;28;19921;-69
2023/09/29 16:47:13;;;;;;;;;;;22.80;95.10;;;;;;4976816;28;20004;-69
2023/09/29 16:49:38;;;;;;;;;;;22.70;95.30;;;;;;4974554;28;19910;-69
2023/09/29 16:52:06;;;;;;;;;;;22.60;95.40;;;;;;4974863;28;19906;-69
2023/09/29 16:54:32;;;;;;;;;;;22.50;95.60;;;;;;4974654;28;19977;-69
2023/09/29 16:56:57;;;;;;;;;;;22.50;95.70;;;;;;4974931;28;19948;-69
2023/09/29 16:59:22;;;;;;;;;;;22.60;95.60;;;;;;4997807;23;19906;-67
2023/09/29 17:01:48;;;;;;;;;;;22.50;95.70;;;;;;4995780;28;20296;-66
2023/09/29 17:04:14;;;;;;;;;;;22.50;95.70;;;;;;4984810;28;20005;-66
2023/09/29 17:06:39;;;;;;;;;;;22.50;95.80;;;;;;4976703;28;19926;-66
2023/09/29 17:09:06;;;;;;;;;;;22.50;95.70;;;;;;4976723;28;19906;-66
2023/09/29 17:11:31;;;;;;;;;;;22.50;95.80;;;;;;4976053;28;19928;-66
2023/09/29 17:13:57;;;;;;;;;;;22.40;96.10;;;;;;4976874;28;20376;-66
2023/09/29 17:16:22;;;;;;;;;;;22.20;96.30;;;;;;4976287;28;20387;-65
2023/09/29 17:18:48;;;;;;;;;;;22.20;96.50;;;;;;4976991;28;19906;-66
2023/09/29 17:21:14;;;;;;;;;;;22.00;96.80;;;;;;4975415;28;19961;-65
2023/09/29 17:23:40;;;;;;;;;;;21.90;97.10;;;;;;4977927;28;19909;-66
2023/09/29 17:26:06;;;;;;;;;;;21.90;97.20;;;;;;4980022;28;19910;-66
2023/09/29 17:28:31;;;;;;;;;;;21.80;97.30;;;;;;4978923;28;19957;-66
2023/09/29 17:30:57;;;;;;;;;;;21.70;97.60;;;;;;4978735;28;20383;-66
2023/09/29 17:33:23;;;;;;;;;;;21.80;97.70;;;;;;4980140;28;19989;-66
2023/09/29 17:35:49;;;;;;;;;;;21.90;97.80;;;;;;4981871;28;19906;-67
2023/09/29 17:38:14;;;;;;;;;;;21.80;97.70;;;;;;4982260;28;20056;-67
2023/09/29 17:40:40;;;;;;;;;;;21.60;98.10;;;;;;4981604;28;20004;-67
2023/09/29 17:43:08;;;;;;;;;;;21.50;98.30;;;;;;4981599;28;19984;-66
2023/09/29 17:45:35;;;;;;;;;;;21.60;98.40;;;;;;4980395;28;19913;-67
2023/09/29 17:48:01;;;;;;;;;;;21.50;98.60;;;;;;4979445;28;19945;-68
2023/09/29 17:50:26;;;;;;;;;;;21.60;98.80;;;;;;4979641;28;20288;-65
2023/09/29 17:52:52;;;;;;;;;;;21.60;98.80;;;;;;4980198;28;19906;-67
2023/09/29 17:55:18;;;;;;;;;;;21.60;98.90;;;;;;4980376;28;19906;-65
2023/09/29 17:57:44;;;;;;;;;;;21.60;99.00;;;;;;4978670;28;19910;-66
2023/09/29 18:00:10;;;;;;;;;;;21.60;99.00;;;;;;4978607;28;19917;-67
2023/09/29 18:02:35;;;;;;;;;;;21.50;99.00;;;;;;4978071;28;19990;-66
2023/09/29 18:05:01;;;;;;;;;;;21.50;99.10;;;;;;4979199;28;19906;-68
2023/09/29 18:07:26;;;;;;;;;;;21.50;99.20;;;;;;4978843;28;19921;-67
2023/09/29 18:09:52;;;;;;;;;;;21.30;99.30;;;;;;4978889;28;19913;-67